PDT,Max TemperatureF,Mean TemperatureF,Min TemperatureF,Max Dew PointF,MeanDew PointF,Min DewpointF,Max Humidity, Mean Humidity, Min Humidity, Max Sea Level PressureIn, Mean Sea Level PressureIn, Min Sea Level PressureIn, Max VisibilityMiles, Mean VisibilityMiles, Min VisibilityMiles, Max Wind SpeedMPH, Mean Wind SpeedMPH, Max Gust SpeedMPH,PrecipitationIn, CloudCover, Events, WindDirDegrees
2011-10-1,91,81,71,48,44,37,41,26,17,30.06,29.98,29.93,10,10,10,13,5,18,0.00,0,,120
2011-10-2,93,80,68,48,45,39,46,30,16,30.05,29.98,29.91,10,10,10,22,4,28,0.00,1,,111
2011-10-3,89,78,68,59,48,45,57,36,22,29.97,29.90,29.81,10,10,5,22,5,31,0.02,2,Thunderstorm,168
2011-10-4,69,66,62,63,57,54,88,73,60,29.85,29.82,29.79,10,10,4,16,9,24,0.08,3,Thunderstorm,68
2011-10-5,66,62,57,55,47,43,88,60,43,29.83,29.74,29.62,10,10,4,30,10,37,0.07,4,,164
2011-10-6,64,55,46,43,37,32,76,51,32,29.87,29.78,29.65,10,10,8,22,7,28,0.01,1,,195
2011-10-7,66,57,48,39,33,25,62,41,24,30.06,30.01,29.93,10,10,10,16,7,16,0.00,1,,3
2011-10-8,69,58,48,39,36,32,71,44,25,30.12,30.07,30.02,10,10,6,15,4,18,0.00,0,,7
2011-10-9,73,64,55,39,35,32,51,35,22,30.09,30.04,29.96,10,10,10,13,8,21,0.00,0,,19
2011-10-10,75,62,48,43,37,32,66,42,21,30.01,29.94,29.87,10,10,10,9,2,,0.00,0,,43
2011-10-11,82,66,51,45,39,36,67,39,19,30.01,29.95,29.90,10,10,10,9,2,,0.00,0,,44
2011-10-12,84,70,57,43,35,27,55,29,12,30.09,30.03,29.99,10,10,10,13,4,17,0.00,0,,31
2011-10-13,86,72,57,36,30,25,44,23,11,30.05,29.98,29.88,10,10,10,8,3,,0.00,0,,39
2011-10-14,87,71,55,39,35,30,51,28,13,29.99,29.93,29.88,10,10,10,8,2,,0.00,0,,36
2011-10-15,91,74,57,45,35,23,51,28,9,29.99,29.93,29.87,10,10,10,14,3,20,0.00,0,,95
2011-10-16,95,77,59,37,34,28,45,25,10,30.00,29.95,29.90,10,10,10,15,3,25,0.00,0,,161
2011-10-17,84,75,66,41,37,32,40,24,16,30.13,30.08,29.99,10,10,8,25,9,32,0.00,0,,25
2011-10-18,82,73,64,28,19,14,23,14,8,30.19,30.12,30.02,10,10,9,16,8,22,0.00,0,,19
2011-10-19,84,68,53,32,27,23,41,22,11,29.99,29.93,29.85,10,9,1,9,2,,0.00,0,,41
2011-10-20,84,68,53,36,30,23,47,27,11,30.04,29.98,29.93,10,10,10,10,2,,0.00,0,,52
2011-10-21,84,68,53,36,30,25,44,26,12,30.15,30.08,30.02,10,10,2,10,2,,0.00,0,,42
2011-10-22,84,68,53,39,32,27,58,28,12,30.17,30.11,30.05,10,10,10,10,3,,0.00,0,,42
2011-10-23,84,70,55,39,30,25,42,25,11,30.11,30.05,29.98,10,10,10,10,3,17,0.00,0,,30
2011-10-24,89,72,55,37,31,23,51,26,9,30.03,29.97,29.92,10,10,2,22,3,26,0.00,0,,200
2011-10-25,86,74,62,41,33,27,40,22,12,29.95,29.89,29.79,10,10,10,21,6,25,0.00,0,,183
2011-10-26,68,62,57,36,24,9,42,25,11,30.10,30.00,29.86,10,9,3,24,18,33,0.00,1,,10
2011-10-27,66,58,50,10,4,0,15,12,9,30.19,30.14,30.07,10,9,2,21,13,25,0.00,0,,17
2011-10-28,73,58,44,19,12,5,37,17,10,30.23,30.17,30.11,10,10,5,10,3,,0.00,0,,22
2011-10-29,77,60,44,25,18,12,40,21,9,30.18,30.12,30.06,10,10,10,8,1,,0.00,0,,26
2011-10-30,78,62,46,27,19,14,40,19,10,30.20,30.14,30.08,10,10,10,9,2,,0.00,0,,35
2011-10-31,80,64,48,32,26,18,46,26,13,30.10,30.04,29.94,10,10,2,8,1,,0.00,0,,38